Time;durP1;ratioP1;P1;durP2;ratioP2;P2;SDS_P1;SDS_P2;PMS_P1;PMS_P2;Temp;Humidity;BMP_temperature;BMP_pressure;BME280_temperature;BME280_humidity;BME280_pressure;Samples;Min_cycle;Max_cycle;Signal;HPM_P1;HPM_P2
2021/09/12 00:00:57;;;;;;;16.10;14.53;;;20.50;99.90;;;;;;6077551;23;20551;-80
2021/09/12 00:03:25;;;;;;;19.47;14.50;;;20.50;99.90;;;;;;6075902;23;20214;-79
2021/09/12 00:05:51;;;;;;;18.73;15.00;;;20.50;99.90;;;;;;6049608;23;20204;-78
2021/09/12 00:08:19;;;;;;;17.37;15.47;;;20.50;99.90;;;;;;6048868;23;20709;-79
2021/09/12 00:10:47;;;;;;;17.77;14.93;;;20.50;99.90;;;;;;6069294;23;20152;-83
2021/09/12 00:13:12;;;;;;;16.70;14.97;;;20.60;99.90;;;;;;6073926;23;20695;-80
2021/09/12 00:15:38;;;;;;;17.03;15.20;;;20.50;99.90;;;;;;6046837;23;20580;-79
2021/09/12 00:18:09;;;;;;;16.63;14.87;;;20.50;99.90;;;;;;6071243;23;20252;-79
2021/09/12 00:20:42;;;;;;;15.30;13.70;;;20.50;99.90;;;;;;6073393;23;20140;-79
2021/09/12 00:23:08;;;;;;;17.10;14.60;;;20.50;99.90;;;;;;6074905;23;20582;-79
2021/09/12 00:25:33;;;;;;;15.50;13.80;;;20.50;99.90;;;;;;6072801;23;20878;-78
2021/09/12 00:27:59;;;;;;;16.67;14.63;;;20.50;99.90;;;;;;6044846;23;20188;-81
2021/09/12 00:30:29;;;;;;;17.33;14.57;;;20.50;99.90;;;;;;6046116;23;20168;-79
2021/09/12 00:32:55;;;;;;;16.53;14.83;;;20.50;99.90;;;;;;6044786;23;20207;-78
2021/09/12 00:35:23;;;;;;;18.47;14.50;;;20.50;99.90;;;;;;6064215;23;21038;-80
2021/09/12 00:37:53;;;;;;;16.63;15.00;;;20.40;99.90;;;;;;6066163;23;20203;-80
2021/09/12 00:40:26;;;;;;;16.67;14.10;;;20.40;99.90;;;;;;6068911;23;21102;-79
2021/09/12 00:42:52;;;;;;;18.37;16.43;;;20.40;99.90;;;;;;6066753;23;20572;-79
2021/09/12 00:45:18;;;;;;;17.60;15.40;;;20.30;99.90;;;;;;6071305;23;20603;-78
2021/09/12 00:47:47;;;;;;;15.00;13.43;;;20.30;99.90;;;;;;6043967;23;20684;-80
2021/09/12 00:50:16;;;;;;;15.70;13.93;;;20.30;99.90;;;;;;6071306;23;20533;-79
2021/09/12 00:52:44;;;;;;;15.80;14.20;;;20.30;99.90;;;;;;6071118;23;20580;-79
2021/09/12 00:55:13;;;;;;;17.03;14.87;;;20.30;99.90;;;;;;6047443;23;20571;-80
2021/09/12 00:57:41;;;;;;;16.70;14.90;;;20.30;99.90;;;;;;6073542;23;20630;-78
2021/09/12 01:00:10;;;;;;;15.90;14.17;;;20.30;99.90;;;;;;6045108;23;20568;-79
2021/09/12 01:02:39;;;;;;;18.23;15.13;;;20.30;99.90;;;;;;6041342;23;21149;-80
2021/09/12 01:05:08;;;;;;;17.33;14.40;;;20.30;99.90;;;;;;6070065;23;20575;-79
2021/09/12 01:07:34;;;;;;;16.57;14.40;;;20.30;99.90;;;;;;6039973;23;20655;-80
2021/09/12 01:10:03;;;;;;;18.47;14.60;;;20.30;99.90;;;;;;6067851;23;20609;-82
2021/09/12 01:12:30;;;;;;;16.30;14.23;;;20.20;99.90;;;;;;6069550;23;20175;-79
2021/09/12 01:14:55;;;;;;;20.17;16.43;;;20.20;99.90;;;;;;6069795;23;20620;-80
2021/09/12 01:17:31;;;;;;;17.07;14.83;;;20.20;99.90;;;;;;6041591;23;20596;-79
2021/09/12 01:19:57;;;;;;;19.50;16.17;;;20.30;99.90;;;;;;6069772;23;20175;-79
2021/09/12 01:22:23;;;;;;;17.50;15.60;;;20.20;99.90;;;;;;6070806;23;20592;-79
2021/09/12 01:24:51;;;;;;;18.00;16.10;;;20.20;99.90;;;;;;6071846;23;20579;-80
2021/09/12 01:27:20;;;;;;;18.27;16.40;;;20.20;99.90;;;;;;6067445;23;20639;-83
2021/09/12 01:29:46;;;;;;;22.83;17.10;;;20.20;99.90;;;;;;6040538;23;20695;-79
2021/09/12 01:32:11;;;;;;;18.60;16.60;;;20.30;99.90;;;;;;6067465;23;20596;-81
2021/09/12 01:34:39;;;;;;;17.20;15.17;;;20.20;99.90;;;;;;6041565;23;20579;-79
2021/09/12 01:37:08;;;;;;;17.73;15.87;;;20.20;99.90;;;;;;6068509;23;20218;-79
2021/09/12 01:39:36;;;;;;;20.23;16.47;;;20.20;99.90;;;;;;6066639;23;20607;-79
2021/09/12 01:42:07;;;;;;;20.77;17.83;;;20.20;99.90;;;;;;6062373;23;20559;-79
2021/09/12 01:44:36;;;;;;;19.47;17.47;;;20.20;99.90;;;;;;6037916;23;20683;-79
2021/09/12 01:47:12;;;;;;;20.27;16.90;;;20.20;99.90;;;;;;6063546;23;20674;-79
2021/09/12 01:49:40;;;;;;;20.53;18.40;;;20.10;99.90;;;;;;6065092;23;21072;-78
2021/09/12 01:52:06;;;;;;;20.07;18.00;;;20.10;99.90;;;;;;6041928;23;20862;-79
2021/09/12 01:54:34;;;;;;;20.17;17.77;;;20.10;99.90;;;;;;6039236;23;20654;-78
2021/09/12 01:56:59;;;;;;;18.50;16.43;;;20.10;99.90;;;;;;6063879;23;20595;-80
2021/09/12 01:59:25;;;;;;;21.60;17.90;;;20.10;99.90;;;;;;6043870;23;20630;-79
2021/09/12 02:01:50;;;;;;;19.73;17.63;;;20.10;99.90;;;;;;6043193;23;20190;-79
2021/09/12 02:04:16;;;;;;;22.00;19.70;;;20.10;99.90;;;;;;6070157;23;20609;-82
2021/09/12 02:06:41;;;;;;;20.10;17.77;;;20.20;99.90;;;;;;6039479;23;20214;-79
2021/09/12 02:09:09;;;;;;;19.73;17.70;;;20.20;99.90;;;;;;6068997;23;20218;-79
2021/09/12 02:11:35;;;;;;;22.53;19.40;;;20.20;99.90;;;;;;6067357;23;20159;-81
2021/09/12 02:14:03;;;;;;;23.50;18.93;;;20.10;99.90;;;;;;6053364;23;20626;-79
2021/09/12 02:16:29;;;;;;;22.60;19.00;;;20.10;99.90;;;;;;6069895;23;20195;-79
2021/09/12 02:18:54;;;;;;;21.10;18.80;;;20.10;99.90;;;;;;6068487;23;20604;-79
2021/09/12 02:21:20;;;;;;;21.67;18.30;;;20.10;99.90;;;;;;6068708;23;20163;-80
2021/09/12 02:23:48;;;;;;;22.13;18.20;;;20.10;99.90;;;;;;6071750;23;20264;-83
2021/09/12 02:26:14;;;;;;;24.13;19.03;;;20.10;99.90;;;;;;6070033;23;20203;-80
2021/09/12 02:28:42;;;;;;;23.73;20.10;;;20.10;99.90;;;;;;6067183;23;20654;-79
2021/09/12 02:31:08;;;;;;;23.20;19.80;;;20.10;99.90;;;;;;6066821;23;20232;-79
2021/09/12 02:33:34;;;;;;;22.10;18.90;;;20.10;99.90;;;;;;6065145;23;20609;-79
2021/09/12 02:36:01;;;;;;;23.67;20.77;;;20.10;99.90;;;;;;6062594;23;20204;-79
2021/09/12 02:38:33;;;;;;;20.97;18.53;;;20.10;99.90;;;;;;6065479;23;20993;-78
2021/09/12 02:40:59;;;;;;;24.30;19.77;;;20.10;99.90;;;;;;6069246;23;20526;-79
2021/09/12 02:43:29;;;;;;;21.97;18.97;;;20.10;99.90;;;;;;6067910;23;20635;-79
2021/09/12 02:45:54;;;;;;;21.97;18.40;;;20.00;99.90;;;;;;6066500;23;20776;-79
2021/09/12 02:48:20;;;;;;;21.03;17.67;;;20.00;99.90;;;;;;6065441;23;20603;-78
2021/09/12 02:50:45;;;;;;;22.13;19.63;;;20.10;99.90;;;;;;6064279;23;20307;-79
2021/09/12 02:53:14;;;;;;;23.57;20.40;;;20.10;99.90;;;;;;6063764;23;20179;-79
2021/09/12 02:55:42;;;;;;;24.33;20.83;;;20.10;99.90;;;;;;6062205;23;20223;-79
2021/09/12 02:58:08;;;;;;;23.07;20.20;;;20.10;99.90;;;;;;6065790;23;20553;-79
2021/09/12 03:00:33;;;;;;;21.00;18.80;;;20.00;99.90;;;;;;6066149;23;20536;-82
2021/09/12 03:03:02;;;;;;;23.10;19.33;;;20.00;99.90;;;;;;6065221;23;20223;-79
2021/09/12 03:05:30;;;;;;;22.83;19.97;;;20.00;99.90;;;;;;6059758;23;20614;-79
2021/09/12 03:07:58;;;;;;;24.60;21.27;;;20.00;99.90;;;;;;6061477;23;20551;-79
2021/09/12 03:10:23;;;;;;;23.90;20.57;;;20.00;99.90;;;;;;6060760;23;20663;-79
2021/09/12 03:12:51;;;;;;;22.70;20.20;;;20.00;99.90;;;;;;6061699;23;21098;-80
2021/09/12 03:15:17;;;;;;;23.27;19.87;;;20.00;99.90;;;;;;6064099;23;20132;-78
2021/09/12 03:17:43;;;;;;;23.00;19.23;;;20.00;99.90;;;;;;6066457;23;20580;-83
2021/09/12 03:20:09;;;;;;;19.93;17.90;;;20.00;99.90;;;;;;6061933;23;20555;-80
2021/09/12 03:22:40;;;;;;;22.03;19.73;;;20.00;99.90;;;;;;6065864;23;20607;-79
2021/09/12 03:25:09;;;;;;;26.50;20.60;;;20.00;99.90;;;;;;6064052;23;20509;-79
2021/09/12 03:27:34;;;;;;;21.77;19.47;;;19.90;99.90;;;;;;6059913;23;20722;-79
2021/09/12 03:30:02;;;;;;;22.67;19.67;;;19.90;99.90;;;;;;6036319;23;20972;-78
2021/09/12 03:32:28;;;;;;;22.27;19.03;;;20.00;99.90;;;;;;6035905;23;20267;-78
2021/09/12 03:34:53;;;;;;;19.50;17.27;;;19.90;99.90;;;;;;6061324;23;20562;-80
2021/09/12 03:37:19;;;;;;;21.40;17.97;;;19.90;99.90;;;;;;6061434;23;20206;-79
2021/09/12 03:39:47;;;;;;;21.60;19.30;;;19.80;99.90;;;;;;6035548;23;20243;-79
2021/09/12 03:42:13;;;;;;;20.83;18.60;;;19.90;99.90;;;;;;6036406;23;20537;-81
2021/09/12 03:44:41;;;;;;;21.20;18.67;;;19.90;99.90;;;;;;6063079;23;20543;-79
2021/09/12 03:47:07;;;;;;;22.50;20.10;;;20.00;99.90;;;;;;6061303;23;20207;-78
2021/09/12 03:49:32;;;;;;;21.70;19.40;;;19.90;99.90;;;;;;6062344;23;20576;-79
2021/09/12 03:52:00;;;;;;;21.47;18.70;;;19.80;99.90;;;;;;6036771;23;20163;-79
2021/09/12 03:54:36;;;;;;;21.63;18.07;;;19.80;99.90;;;;;;6037092;23;20525;-79
2021/09/12 03:57:08;;;;;;;20.97;18.53;;;19.80;99.90;;;;;;6034854;23;20602;-79
2021/09/12 03:59:39;;;;;;;20.00;17.90;;;19.80;99.90;;;;;;6062252;23;20619;-80
2021/09/12 04:02:07;;;;;;;19.10;17.07;;;19.80;99.90;;;;;;6037921;23;20568;-82
2021/09/12 04:04:33;;;;;;;19.20;17.20;;;19.70;99.90;;;;;;6063320;23;20556;-81
2021/09/12 04:07:01;;;;;;;21.07;18.80;;;19.70;99.90;;;;;;6060554;23;20659;-80
2021/09/12 04:09:27;;;;;;;22.00;18.30;;;19.70;99.90;;;;;;6063333;23;20517;-80
2021/09/12 04:11:52;;;;;;;20.40;18.20;;;19.70;99.90;;;;;;6060442;23;20555;-78
2021/09/12 04:14:25;;;;;;;21.67;19.37;;;19.70;99.90;;;;;;6059333;23;20211;-79
2021/09/12 04:16:51;;;;;;;21.37;19.07;;;19.70;99.90;;;;;;6059688;23;20235;-79
2021/09/12 04:19:19;;;;;;;21.77;19.53;;;19.60;99.90;;;;;;6060844;23;20536;-80
2021/09/12 04:21:45;;;;;;;22.10;18.70;;;19.60;99.90;;;;;;6034493;23;20180;-79
2021/09/12 04:24:10;;;;;;;24.80;19.60;;;19.60;99.90;;;;;;6062719;23;20888;-79
2021/09/12 04:26:38;;;;;;;21.00;18.77;;;19.60;99.90;;;;;;6062395;23;20207;-80
2021/09/12 04:29:04;;;;;;;22.23;19.80;;;19.60;99.90;;;;;;6060807;23;20198;-79
2021/09/12 04:31:40;;;;;;;22.93;20.40;;;19.60;99.90;;;;;;6035524;23;20639;-79
2021/09/12 04:34:05;;;;;;;22.83;20.20;;;19.60;99.90;;;;;;6058977;23;20655;-79
2021/09/12 04:36:36;;;;;;;21.47;19.13;;;19.70;99.90;;;;;;6032039;23;21156;-81
2021/09/12 04:39:06;;;;;;;25.20;21.30;;;19.70;99.90;;;;;;6059762;23;20169;-80
2021/09/12 04:41:34;;;;;;;23.00;20.50;;;19.70;99.90;;;;;;6062001;23;20635;-81
2021/09/12 04:43:59;;;;;;;23.40;20.90;;;19.70;99.90;;;;;;6036664;23;20588;-79
2021/09/12 04:46:25;;;;;;;23.47;20.93;;;19.60;99.90;;;;;;6058865;23;20592;-81
2021/09/12 04:48:52;;;;;;;23.43;20.13;;;19.60;99.90;;;;;;6034828;23;20610;-80
2021/09/12 04:51:21;;;;;;;24.17;21.57;;;19.60;99.90;;;;;;6061332;23;20160;-79
2021/09/12 04:53:48;;;;;;;23.40;20.00;;;19.60;99.90;;;;;;6034654;23;20595;-79
2021/09/12 04:56:14;;;;;;;24.10;21.50;;;19.60;99.90;;;;;;6034471;23;20598;-81
2021/09/12 04:58:42;;;;;;;27.00;22.43;;;19.60;99.90;;;;;;6032821;23;20568;-79
2021/09/12 05:01:10;;;;;;;23.57;19.70;;;19.60;99.90;;;;;;6061106;23;20163;-79
2021/09/12 05:03:39;;;;;;;25.40;21.70;;;19.60;99.90;;;;;;6059992;23;20635;-79
2021/09/12 05:06:04;;;;;;;24.53;21.80;;;19.60;99.90;;;;;;6058486;23;20723;-80
2021/09/12 05:08:32;;;;;;;26.60;21.97;;;19.60;99.90;;;;;;6059599;23;20583;-79
2021/09/12 05:10:58;;;;;;;24.40;21.73;;;19.60;99.90;;;;;;6060772;23;20211;-77
2021/09/12 05:13:23;;;;;;;25.30;21.60;;;19.60;99.90;;;;;;6057314;23;20587;-79
2021/09/12 05:15:49;;;;;;;25.70;20.70;;;19.60;99.90;;;;;;6052743;23;20238;-79
2021/09/12 05:18:14;;;;;;;23.83;20.57;;;19.70;99.90;;;;;;6056432;23;20500;-79
2021/09/12 05:20:40;;;;;;;24.53;21.40;;;19.70;99.90;;;;;;6055670;23;20166;-79
2021/09/12 05:23:06;;;;;;;24.40;20.03;;;19.70;99.90;;;;;;6033640;23;20593;-79
2021/09/12 05:25:35;;;;;;;24.43;20.23;;;19.70;99.90;;;;;;6055862;23;20159;-80
2021/09/12 05:28:00;;;;;;;23.40;19.50;;;19.70;99.90;;;;;;6058985;23;20652;-80
2021/09/12 05:30:34;;;;;;;26.17;21.40;;;19.70;99.90;;;;;;6058313;23;20614;-78
2021/09/12 05:33:02;;;;;;;24.00;20.90;;;19.70;99.90;;;;;;6059188;23;20193;-79
2021/09/12 05:35:28;;;;;;;25.83;21.73;;;19.70;99.90;;;;;;6031301;23;20599;-81
2021/09/12 05:37:53;;;;;;;22.80;20.30;;;19.60;99.90;;;;;;6058971;23;21054;-79
2021/09/12 05:40:20;;;;;;;26.33;21.53;;;19.70;99.90;;;;;;6032419;23;20159;-81
2021/09/12 05:42:45;;;;;;;25.70;20.97;;;19.70;99.90;;;;;;6065329;23;20186;-79
2021/09/12 05:45:11;;;;;;;27.67;23.43;;;19.70;99.90;;;;;;6060486;23;20552;-79
2021/09/12 05:47:37;;;;;;;25.23;20.93;;;19.70;99.90;;;;;;6058785;23;20699;-79
2021/09/12 05:50:06;;;;;;;32.97;24.83;;;19.70;99.90;;;;;;6034025;23;20187;-81
2021/09/12 05:52:31;;;;;;;27.63;22.00;;;19.70;99.90;;;;;;6061778;23;20315;-80
2021/09/12 05:55:00;;;;;;;27.60;21.90;;;19.70;99.90;;;;;;6060060;23;21183;-80
2021/09/12 05:57:26;;;;;;;27.10;22.70;;;19.70;99.90;;;;;;6033631;23;20203;-80
2021/09/12 05:59:54;;;;;;;25.40;21.10;;;19.70;99.90;;;;;;6036720;23;20579;-81
2021/09/12 06:02:19;;;;;;;26.70;22.40;;;19.70;99.90;;;;;;6059807;23;20187;-83
2021/09/12 06:04:45;;;;;;;26.33;22.87;;;19.70;99.90;;;;;;6029990;23;20564;-83
2021/09/12 06:07:11;;;;;;;24.40;21.03;;;19.70;99.90;;;;;;6034420;23;20713;-79
2021/09/12 06:09:38;;;;;;;28.70;22.60;;;19.80;99.90;;;;;;6061398;23;20217;-84
2021/09/12 06:12:05;;;;;;;25.50;21.50;;;19.80;99.90;;;;;;6060347;23;20156;-84
2021/09/12 06:14:31;;;;;;;23.97;20.73;;;19.80;99.90;;;;;;6060537;23;20623;-84
2021/09/12 06:16:56;;;;;;;26.90;21.70;;;19.80;99.90;;;;;;6055492;23;21138;-79
2021/09/12 06:19:22;;;;;;;25.10;21.57;;;19.70;99.90;;;;;;6034581;23;20170;-78
2021/09/12 06:21:47;;;;;;;25.70;20.20;;;19.70;99.90;;;;;;6059432;23;20167;-79
2021/09/12 06:24:13;;;;;;;26.60;21.63;;;19.80;99.90;;;;;;6035194;23;20670;-79
2021/09/12 06:26:38;;;;;;;24.83;22.10;;;19.80;99.90;;;;;;6041191;23;20310;-82
2021/09/12 06:29:05;;;;;;;27.27;22.03;;;19.80;99.90;;;;;;6057488;23;20180;-91
2021/09/12 06:31:31;;;;;;;23.77;20.37;;;19.80;99.90;;;;;;6054839;23;20178;-89
2021/09/12 06:33:56;;;;;;;26.67;21.93;;;19.80;99.90;;;;;;6050437;23;20600;-82
2021/09/12 06:36:22;;;;;;;24.60;21.90;;;20.00;99.90;;;;;;6072596;23;20199;-82
2021/09/12 06:38:48;;;;;;;23.70;19.90;;;19.90;99.90;;;;;;6076857;23;20518;-90
2021/09/12 06:41:14;;;;;;;27.57;20.47;;;19.90;99.90;;;;;;6078299;23;20577;-85
2021/09/12 06:43:39;;;;;;;23.20;20.70;;;19.90;99.90;;;;;;6040341;23;20686;-83
2021/09/12 06:46:05;;;;;;;24.40;21.30;;;19.90;99.90;;;;;;6083413;23;20238;-88
2021/09/12 06:48:31;;;;;;;26.67;22.20;;;20.00;99.90;;;;;;6064065;23;20175;-87
2021/09/12 06:50:57;;;;;;;22.10;19.80;;;20.00;99.90;;;;;;6089597;23;20201;-85
2021/09/12 06:53:23;;;;;;;23.20;19.20;;;20.10;99.90;;;;;;6053300;23;20187;-79
2021/09/12 06:55:49;;;;;;;24.20;21.27;;;20.00;99.90;;;;;;6051098;23;20588;-90
2021/09/12 06:58:16;;;;;;;23.70;19.90;;;20.10;99.90;;;;;;6059018;23;20552;-82
2021/09/12 07:00:42;;;;;;;25.73;19.20;;;20.00;99.90;;;;;;6037415;23;20171;-78
2021/09/12 07:03:07;;;;;;;24.63;20.70;;;20.00;99.90;;;;;;6061187;23;20563;-80
2021/09/12 07:05:33;;;;;;;23.53;19.57;;;19.90;99.90;;;;;;6064967;23;20194;-85
2021/09/12 07:08:01;;;;;;;24.53;18.83;;;20.00;99.90;;;;;;6065907;23;20163;-81
2021/09/12 07:10:26;;;;;;;21.57;18.57;;;20.00;99.90;;;;;;6040796;23;20186;-81
2021/09/12 07:12:52;;;;;;;25.00;19.40;;;20.00;99.90;;;;;;6046501;23;20595;-80
2021/09/12 07:15:18;;;;;;;22.33;18.30;;;20.10;99.90;;;;;;6066349;23;20201;-81
2021/09/12 07:17:43;;;;;;;22.73;18.40;;;20.00;99.90;;;;;;6038698;23;20197;-82
2021/09/12 07:20:10;;;;;;;22.07;18.10;;;20.10;99.90;;;;;;6042323;23;20185;-81
2021/09/12 07:22:36;;;;;;;20.57;18.40;;;20.10;99.90;;;;;;6071392;23;20180;-81
2021/09/12 07:25:02;;;;;;;21.87;17.87;;;20.10;99.90;;;;;;6045848;23;21090;-83
2021/09/12 07:27:27;;;;;;;21.20;18.30;;;20.20;99.90;;;;;;6070867;23;20214;-85
2021/09/12 07:29:53;;;;;;;19.73;17.47;;;20.20;99.90;;;;;;6041853;23;20711;-82
2021/09/12 07:32:18;;;;;;;21.03;18.60;;;20.20;99.90;;;;;;6036176;23;20176;-80
2021/09/12 07:34:46;;;;;;;17.83;15.93;;;20.20;99.90;;;;;;6068546;23;20156;-79
2021/09/12 07:37:11;;;;;;;20.67;16.73;;;20.20;99.90;;;;;;6068476;23;20195;-82
2021/09/12 07:39:40;;;;;;;24.53;17.50;;;20.20;99.90;;;;;;6066753;23;20536;-79
2021/09/12 07:42:08;;;;;;;20.53;16.73;;;20.20;99.90;;;;;;6069906;23;20164;-80
2021/09/12 07:44:36;;;;;;;18.77;16.13;;;20.20;99.90;;;;;;6037557;23;20938;-77
2021/09/12 07:47:02;;;;;;;18.30;16.40;;;20.20;99.90;;;;;;6061109;23;20604;-76
2021/09/12 07:49:27;;;;;;;18.50;16.13;;;20.40;99.90;;;;;;6063678;23;20579;-76
2021/09/12 07:51:53;;;;;;;15.23;13.60;;;20.40;99.90;;;;;;6062697;23;20239;-76
2021/09/12 07:54:18;;;;;;;16.33;13.93;;;20.40;99.90;;;;;;6037626;23;20167;-75
2021/09/12 07:56:44;;;;;;;15.23;13.60;;;20.50;99.90;;;;;;6037378;23;20278;-75
2021/09/12 07:59:10;;;;;;;14.23;12.73;;;20.50;99.90;;;;;;6065796;23;20186;-75
2021/09/12 08:01:36;;;;;;;14.73;13.03;;;20.60;99.90;;;;;;6064843;23;20196;-76
2021/09/12 08:04:04;;;;;;;16.10;13.80;;;20.70;99.90;;;;;;6067264;23;20186;-75
2021/09/12 08:06:29;;;;;;;15.43;13.83;;;20.70;99.90;;;;;;6039353;23;20638;-74
2021/09/12 08:08:55;;;;;;;16.40;14.17;;;20.70;99.90;;;;;;6065672;23;20579;-74
2021/09/12 08:11:20;;;;;;;16.10;14.40;;;20.70;99.90;;;;;;6042406;23;20627;-75
2021/09/12 08:13:46;;;;;;;17.80;15.37;;;20.70;99.90;;;;;;6043456;23;20615;-75
2021/09/12 08:16:11;;;;;;;17.27;14.17;;;20.80;99.90;;;;;;6066795;23;21001;-75
2021/09/12 08:18:40;;;;;;;16.73;14.93;;;20.80;99.90;;;;;;6066131;23;20275;-76
2021/09/12 08:21:05;;;;;;;14.87;13.23;;;20.80;99.90;;;;;;6071661;23;20159;-77
2021/09/12 08:23:31;;;;;;;16.50;14.70;;;20.90;99.90;;;;;;6068192;23;20599;-77
2021/09/12 08:25:57;;;;;;;18.53;14.20;;;20.90;99.90;;;;;;6074803;23;20199;-78
2021/09/12 08:28:22;;;;;;;17.37;15.07;;;21.00;99.90;;;;;;6074033;23;20195;-77
2021/09/12 08:30:48;;;;;;;15.67;13.97;;;20.90;99.90;;;;;;6073927;23;20558;-77
2021/09/12 08:33:15;;;;;;;16.70;14.60;;;20.90;99.90;;;;;;6073679;23;20190;-78
2021/09/12 08:35:43;;;;;;;17.20;14.57;;;21.00;99.90;;;;;;6073389;23;20253;-77
2021/09/12 08:38:09;;;;;;;20.10;15.20;;;21.00;99.90;;;;;;6074906;23;20624;-77
2021/09/12 08:40:35;;;;;;;18.63;15.00;;;21.30;99.90;;;;;;6073422;23;20589;-76
2021/09/12 08:43:01;;;;;;;18.60;14.80;;;21.10;99.90;;;;;;6066500;23;20829;-74
2021/09/12 08:45:27;;;;;;;18.97;14.20;;;21.10;99.90;;;;;;6070221;23;20560;-77
2021/09/12 08:47:56;;;;;;;17.33;15.23;;;21.20;99.90;;;;;;6073999;23;20544;-75
2021/09/12 08:50:22;;;;;;;15.73;12.90;;;21.20;99.90;;;;;;6070786;23;20560;-76
2021/09/12 08:52:48;;;;;;;17.77;15.13;;;21.30;99.90;;;;;;6070449;23;20967;-76
2021/09/12 08:55:14;;;;;;;18.70;14.20;;;21.40;99.90;;;;;;6069047;23;20532;-75
2021/09/12 08:57:50;;;;;;;16.23;14.57;;;21.40;99.90;;;;;;6065004;23;20207;-75
2021/09/12 09:00:21;;;;;;;19.00;14.43;;;21.40;99.90;;;;;;6065365;23;20178;-77
2021/09/12 09:02:56;;;;;;;15.63;14.03;;;21.40;99.90;;;;;;6065658;23;20586;-77
2021/09/12 09:05:29;;;;;;;15.93;13.80;;;21.50;99.90;;;;;;6063142;23;20504;-75
2021/09/12 09:08:12;;;;;;;14.37;12.80;;;21.50;99.90;;;;;;6067419;23;20504;-74
2021/09/12 09:10:52;;;;;;;16.43;13.37;;;21.50;99.90;;;;;;6064655;23;20583;-76
2021/09/12 09:13:36;;;;;;;15.43;13.17;;;21.50;99.90;;;;;;6066180;23;20955;-74
2021/09/12 09:16:04;;;;;;;16.10;13.63;;;21.60;99.90;;;;;;6065310;23;20658;-76
2021/09/12 09:18:41;;;;;;;13.90;12.50;;;21.50;99.90;;;;;;6040396;23;20586;-75
2021/09/12 09:21:31;;;;;;;13.97;11.93;;;21.60;99.90;;;;;;6042042;23;20590;-77
2021/09/12 09:24:11;;;;;;;12.63;11.43;;;21.70;99.90;;;;;;6021857;23;20600;-76
2021/09/12 09:26:46;;;;;;;15.43;13.70;;;21.80;99.90;;;;;;6066433;23;20595;-74
2021/09/12 09:29:12;;;;;;;12.93;11.60;;;21.80;99.90;;;;;;6042509;23;21012;-73
2021/09/12 09:31:39;;;;;;;17.20;12.90;;;21.80;99.90;;;;;;6063981;23;20574;-73
2021/09/12 09:34:21;;;;;;;14.57;12.70;;;21.90;99.90;;;;;;6063962;23;20592;-74
2021/09/12 09:36:49;;;;;;;13.60;11.93;;;21.90;99.90;;;;;;6035056;23;20647;-74
2021/09/12 09:39:44;;;;;;;14.10;12.40;;;21.90;99.90;;;;;;6037283;23;20556;-74
2021/09/12 09:42:36;;;;;;;14.40;12.10;;;22.00;99.90;;;;;;6034588;23;20583;-75
2021/09/12 09:45:12;;;;;;;15.10;12.13;;;22.10;99.90;;;;;;6046736;23;20572;-72
2021/09/12 09:47:41;;;;;;;16.33;13.50;;;22.10;99.90;;;;;;6062638;23;20631;-72
2021/09/12 09:50:08;;;;;;;15.17;13.10;;;22.10;99.90;;;;;;6061070;23;20635;-73
2021/09/12 09:52:46;;;;;;;18.23;12.57;;;22.10;99.90;;;;;;6039292;23;20639;-72
2021/09/12 09:55:26;;;;;;;13.77;12.30;;;22.00;99.90;;;;;;6039620;23;20659;-72
2021/09/12 09:57:54;;;;;;;15.07;12.40;;;22.00;99.90;;;;;;6064344;23;20591;-72
2021/09/12 10:00:22;;;;;;;13.90;12.33;;;21.90;99.90;;;;;;6065944;23;20578;-73
2021/09/12 10:02:51;;;;;;;13.23;11.83;;;21.90;99.90;;;;;;6064320;23;20588;-72
2021/09/12 10:05:20;;;;;;;14.97;11.53;;;22.00;99.90;;;;;;6064293;23;20544;-72
2021/09/12 10:07:48;;;;;;;14.03;12.40;;;22.00;99.90;;;;;;6063171;23;20548;-72
2021/09/12 10:10:17;;;;;;;13.57;11.83;;;22.10;99.90;;;;;;6037603;23;20993;-72
2021/09/12 10:12:53;;;;;;;13.20;11.60;;;22.10;99.90;;;;;;6036118;23;20583;-73
2021/09/12 10:15:22;;;;;;;15.13;11.80;;;22.20;99.90;;;;;;6030350;23;20595;-72
2021/09/12 10:17:49;;;;;;;11.70;10.47;;;22.20;99.90;;;;;;6034800;23;20565;-72
2021/09/12 10:20:23;;;;;;;11.77;10.57;;;22.20;99.90;;;;;;6032001;23;20583;-72
2021/09/12 10:23:01;;;;;;;12.27;10.63;;;22.20;99.90;;;;;;6032351;23;20597;-73
2021/09/12 10:25:30;;;;;;;12.40;10.37;;;22.20;99.90;;;;;;6034205;23;20560;-75
2021/09/12 10:28:03;;;;;;;13.37;11.97;;;22.20;99.90;;;;;;6034417;23;20987;-74
2021/09/12 10:30:33;;;;;;;12.97;11.67;;;22.30;99.90;;;;;;6034011;23;20643;-74
2021/09/12 10:33:08;;;;;;;12.03;10.80;;;22.30;99.90;;;;;;6028940;23;20632;-75
2021/09/12 10:35:38;;;;;;;11.80;10.60;;;22.40;99.90;;;;;;6035051;23;20564;-74
2021/09/12 10:38:08;;;;;;;33.07;30.60;;;22.40;99.90;;;;;;6034982;23;20540;-74
2021/09/12 10:40:49;;;;;;;14.20;12.80;;;22.60;99.90;;;;;;6033549;23;20564;-74
2021/09/12 10:43:30;;;;;;;12.70;11.50;;;22.70;99.90;;;;;;6035601;23;20599;-74
2021/09/12 10:46:01;;;;;;;14.73;13.23;;;23.00;99.90;;;;;;6038736;23;20588;-74
2021/09/12 10:48:28;;;;;;;11.40;9.93;;;23.10;99.90;;;;;;6038986;23;20592;-73
2021/09/12 10:50:54;;;;;;;11.50;10.30;;;23.20;99.90;;;;;;6033203;23;21016;-74
2021/09/12 10:53:48;;;;;;;28.87;26.97;;;23.40;99.90;;;;;;6035710;23;20569;-73
2021/09/12 10:56:17;;;;;;;13.47;12.37;;;23.60;99.90;;;;;;6032730;23;20196;-73
2021/09/12 10:58:48;;;;;;;11.53;10.53;;;23.70;99.90;;;;;;6036428;23;20882;-74
2021/09/12 11:01:36;;;;;;;12.60;11.43;;;23.80;99.90;;;;;;6036570;23;20560;-73
2021/09/12 11:04:03;;;;;;;13.50;11.50;;;24.00;99.90;;;;;;6035315;23;20656;-84
2021/09/12 11:06:33;;;;;;;;;;;24.20;99.90;;;;;;6041298;23;19914;-84
2021/09/12 11:08:59;;;;;;;;;;;24.00;99.90;;;;;;6040369;23;20340;-85
2021/09/12 11:11:25;;;;;;;;;;;23.80;99.90;;;;;;6039949;23;20358;-85
2021/09/12 11:13:52;;;;;;;;;;;23.70;99.90;;;;;;6035030;23;19990;-82
2021/09/12 11:16:19;;;;;;;;;;;23.60;99.90;;;;;;6033658;23;19971;-82
2021/09/12 11:18:51;;;;;;;;;;;23.50;99.90;;;;;;6035221;23;20034;-83
2021/09/12 11:21:36;;;;;;;;;;;23.40;99.90;;;;;;6033603;23;19969;-84
2021/09/12 11:24:09;;;;;;;;;;;23.40;99.90;;;;;;6042959;23;19910;-82
2021/09/12 11:26:39;;;;;;;;;;;23.50;99.90;;;;;;6041405;23;19955;-82
2021/09/12 11:29:07;;;;;;;;;;;23.60;99.90;;;;;;6042859;23;19948;-82
2021/09/12 11:31:33;;;;;;;;;;;23.50;99.90;;;;;;6041117;23;19951;-81
2021/09/12 11:33:59;;;;;;;;;;;23.60;99.90;;;;;;6037372;23;19940;-80
2021/09/12 11:36:38;;;;;;;;;;;23.70;99.90;;;;;;6031523;23;19949;-79
2021/09/12 11:39:38;;;;;;;;;;;23.70;99.90;;;;;;6035391;23;20003;-87
2021/09/12 11:42:05;;;;;;;;;;;23.70;99.90;;;;;;6049196;23;19969;-74
2021/09/12 11:44:38;;;;;;;;;;;23.80;99.90;;;;;;6030821;23;20424;-75
2021/09/12 11:47:10;;;;;;;;;;;23.80;99.90;;;;;;6031279;23;19949;-75
2021/09/12 11:49:36;;;;;;;;;;;23.90;99.90;;;;;;6032473;23;20040;-75
2021/09/12 11:52:01;;;;;;;;;;;24.00;99.90;;;;;;6014894;23;19955;-75
2021/09/12 11:54:28;;;;;;;;;;;24.00;99.90;;;;;;5940884;23;25057;-74
2021/09/12 11:57:01;;;;;;;;;;;23.90;99.90;;;;;;5943534;23;20685;-74
2021/09/12 11:59:31;;;;;;;;;;;23.80;99.90;;;;;;5943258;23;20631;-74
2021/09/12 12:01:57;;;;;;;;;;;23.60;99.90;;;;;;5947874;23;25038;-74
2021/09/12 12:04:23;;;;;;;;;;;23.40;99.90;;;;;;5948658;23;25052;-75
2021/09/12 12:06:49;;;;;;;;;;;23.30;99.90;;;;;;5945202;23;25044;-78
2021/09/12 12:09:18;;;;;;;;;;;23.30;99.90;;;;;;5940039;23;25067;-74
2021/09/12 12:11:45;;;;;;;;;;;23.50;99.90;;;;;;5942693;23;20145;-74
2021/09/12 12:14:17;;;;;;;;;;;23.60;99.90;;;;;;5943703;23;25118;-73
2021/09/12 12:16:43;;;;;;;;;;;23.80;99.90;;;;;;5942269;23;20468;-74
2021/09/12 12:19:12;;;;;;;;;;;23.90;99.90;;;;;;5943736;23;20174;-75
2021/09/12 12:21:39;;;;;;;;;;;24.20;99.90;;;;;;5946966;23;25047;-74
2021/09/12 12:24:08;;;;;;;;;;;24.40;99.90;;;;;;5962401;23;25040;-75
2021/09/12 12:26:38;;;;;;;;;;;24.60;99.90;;;;;;5956069;23;25064;-76
2021/09/12 12:29:03;;;;;;;;;;;24.60;99.90;;;;;;5988346;23;20494;-75
2021/09/12 12:31:28;;;;;;;;;;;24.80;99.90;;;;;;5963840;23;20144;-75
2021/09/12 12:33:54;;;;;;;;;;;24.90;99.90;;;;;;5966105;23;20941;-75
2021/09/12 12:36:21;;;;;;;;;;;24.90;99.90;;;;;;5987364;23;20063;-76
2021/09/12 12:38:47;;;;;;;;;;;25.00;99.90;;;;;;5965214;23;20210;-75
2021/09/12 12:41:14;;;;;;;;;;;25.10;99.90;;;;;;5964847;23;20540;-76
2021/09/12 12:43:40;;;;;;;;;;;25.10;99.90;;;;;;5964877;23;25045;-75
2021/09/12 12:46:05;;;;;;;;;;;25.10;99.90;;;;;;5965304;23;20659;-76